Aktualne dane pomiarowe

Uwaga, wersja testowa! Automatyczne pobieranie danych za pomocą narzędzi lub skryptów to umożliwiających jest zabronione.

Dane meteo z obszaru Polski uzyskane na podstawie depesz SYNOP pobieranych co godzinę z NWS. Najedź myszką na symbol przedstawiony w tabeli, aby uzyskać informacje co do jego znaczenia. Prosimy pamiętać, że to testowa wersja strony, która jeszcze nie jest ukończona. Stworzono również jest krótki FAQ dotyczący korzystania z tej podstrony Anomalie temperatury w chwili obecnej odniesione są do okresu referencyjnego 1951-2016. Okres ten będzie później zmieniony na 1981-2010. Kliknij ikonę aby pobrać plik CSV. Kliknij ikonę aby wygenerować mapę synoptyczną dla danego terminu.

Wybierz Datę:    

        

Ostrołęka (12285)

Dane terminowe dla wybranej stacji. Kliknij datę, aby otrzymać dane z tego terminu dla wszystkich stacji.

TemperaturaZachmurzenieWiatrCiśnienieOpadyPogoda
 Data t td wb tx tn tg rh  Nt Nl Cl Cm Ch ws wd g1 g2 wx mslp ppp ch 24h 12h t ww ww w1 w2  
2019-10-03 23:00:00 3.8 3.4 3.4--- 970.3--1wx---1012.11000.3 0.5---wx-----
2019-10-03 22:00:00 4.6 4.2 4.2--- 973.7--1wx---1011.81000.1 0.4---wx-----
2019-10-03 21:00:00 4.5 4.0 4.1--- 974.4--1wx---1011.81000.0 0.5---wx-----
2019-10-03 20:00:00 4.7 4.0 4.2--- 956.0--1wx---1011.6 999.8 0.5---wx-----
2019-10-03 19:00:00 5.4 4.3 4.6--- 9312.0--1wx---1011.3 999.7 0.2---------
2019-10-03 18:00:00 6.2 4.7 5.2 13.4 6.2- 9014.0--2wx---1011.2 999.5 0.3- 0.012------
2019-10-03 17:00:00 7.8 5.2 6.2--- 8420.0--2wx---1011.0 999.4 0.5---------
2019-10-03 16:00:00 10.5 5.3 7.4--- 7020.0--1wx---1010.9 999.4 0.7---------
2019-10-03 15:00:00 11.9 4.9 8.0--- 6220.0--0----1010.6 999.2 0.5---------
2019-10-03 14:00:00 11.6 4.8 7.8--- 6320.0--2----1010.3 998.9 0.2---------
2019-10-03 13:00:00 12.6 4.1 8.0--- 5620.0--2----1010.1 998.7 0.0---------
2019-10-03 12:00:00 12.7 4.5 8.2--- 5720.0--3----1010.1 998.7 0.0- 0.06------
2019-10-03 11:00:00 12.1 5.1 8.1--- 6220.0--4----1010.2 998.8 0.5---------
2019-10-03 10:00:00 11.6 6.7 8.6--- 7220.0--2----1010.2 998.8 0.9---------
2019-10-03 09:00:00 10.1 6.9 8.1--- 8120.0--2----1010.1 998.7 1.1---------
2019-10-03 08:00:00 8.5 6.9 7.4--- 9020.0--2----1009.8 998.2 1.0---------
2019-10-03 07:00:00 7.5 6.6 6.8--- 9420.0--2----1009.4 997.8 1.1---------
2019-10-03 06:00:00 6.7 6.1 6.2 9.4 6.6 6 9620.0--1----1009.1 997.5 0.8 11.6 0.012----- 0.0
2019-10-03 05:00:00 6.7 5.9 6.1--- 9520.0--1wx---1008.8 997.2 0.9---------
2019-10-03 04:00:00 6.9 6.3 6.4--- 9619.0--1----1008.3 996.7 0.6---------
2019-10-03 03:00:00 7.2 6.6 6.7--- 9619.0--1wx---1008.3 996.7 0.7---------
2019-10-03 02:00:00 7.5 6.8 7.0--- 9518.0--1----1007.8 996.3 0.6---------
2019-10-03 01:00:00 7.9 7.2 7.4--- 9520.0--0----1007.7 996.2 0.9---------
2019-10-03 00:00:00 8.1 7.4 7.6--- 9517.0--2----1007.5 996.0 1.3- 0.06------
2019-10-02 23:00:00 8.4 7.8 7.9--- 9617.0--2----1007.1 995.6 1.3---------
2019-10-02 22:00:00 8.7 8.0 8.2--- 9519.0--2----1006.7 995.2 1.9---------
2019-10-02 21:00:00 8.9 8.1 8.3--- 9520.0--3----1006.2 994.7 2.1---------
2019-10-02 20:00:00 9.0 8.2 8.4--- 9518.0--3----1005.8 994.3 2.7---------
2019-10-02 19:00:00 8.9 8.2 8.4--- 955.0--0----1004.8 993.3 2.9---wx-----
2019-10-02 18:00:00 9.4 8.3 8.6 15.4 9.4- 9320.0--0----1004.1 992.6 3.5---------
2019-10-02 17:00:00 11.0 10.0 10.3--- 9417.0--0----1003.0 991.7 2.7---wx-----
2019-10-02 16:00:00 12.6 11.8 12.0--- 959.0--0----1001.7 990.4 1.5---wx-----
2019-10-02 15:00:00 15.4 14.5 14.7--- 9420.0--0----1000.3 989.1 0.0---------
2019-10-02 14:00:00 15.4 14.6 14.8--- 9520.0--3----1000.1 989.0 -0.4---------
2019-10-02 13:00:00 15.1 14.4 14.6--- 9610.0--3----1000.1 988.9 -0.4---wx-----
2019-10-02 12:00:00 14.8 14.1 14.3--- 9615.0--3----1000.3 989.2 -0.2- 6.06wx-----
2019-10-02 11:00:00 14.7 14.1 14.2--- 9614.0--3----1000.6 989.4 0.0---wx-----
2019-10-02 10:00:00 14.4 13.8 13.9--- 9614.0--3----1000.5 989.3 0.2---wx-----
2019-10-02 09:00:00 13.8 12.9 13.1--- 9411.0--3----1000.5 989.3 0.5---wx-----
2019-10-02 08:00:00 14.0 12.6 13.0--- 9117.0--3----1000.7 989.4 0.8---wx-----
2019-10-02 07:00:00 14.3 12.4 13.0--- 8820.0--3----1000.3 989.1 0.5---------
2019-10-02 06:00:00 13.8 12.4 12.8 15.3 12.9 12 9120.0--2----1000.0 988.8 0.2 1.2 0.012----- 0.0
2019-10-02 05:00:00 13.6 12.3 12.7--- 9220.0--2---- 999.8 988.6 0.0---------
2019-10-02 04:00:00 13.6 12.3 12.7--- 9220.0--2---- 999.8 988.6 0.0---wx-----
2019-10-02 03:00:00 13.6 11.9 12.4--- 8920.0--2---- 999.9 988.6 0.0---wx-----
2019-10-02 02:00:00 13.3 11.7 12.2--- 9020.0--2wx--- 999.9 988.7 -0.2---------
2019-10-02 00:00:00 13.8 12.8 13.1--- 9420.0--2---- 999.8 988.6 0.0- 0.06------
7.5 ms

 

Print Friendly, PDF & Email